createdAt,value
2017-12-15T00:00:28.005Z,92.56
2017-12-15T00:01:08.508Z,93.23
2017-12-15T00:01:49.049Z,93.79
2017-12-15T00:02:29.572Z,93.89
2017-12-15T00:03:10.124Z,93.79
2017-12-15T00:03:50.649Z,93.6
2017-12-15T00:04:31.187Z,93.79
2017-12-15T00:05:11.725Z,94.08
2017-12-15T00:05:52.225Z,93.98
2017-12-15T00:06:32.846Z,94.37
2017-12-15T00:07:13.343Z,94.37
2017-12-15T00:07:53.861Z,94.27
2017-12-15T00:08:34.457Z,94.65
2017-12-15T00:09:15.362Z,94.65
2017-12-15T00:09:55.871Z,94.37
2017-12-15T00:10:36.400Z,94.65
2017-12-15T00:11:16.912Z,94.18
2017-12-15T00:11:57.445Z,94.46
2017-12-15T00:12:38.025Z,94.56
2017-12-15T00:13:18.553Z,95.03
2017-12-15T00:13:59.087Z,94.74
2017-12-15T00:14:39.625Z,94.56
2017-12-15T00:15:20.172Z,94.56
2017-12-15T00:16:00.731Z,95.22
2017-12-15T00:16:41.253Z,94.84
2017-12-15T00:17:21.852Z,94.93
2017-12-15T00:18:02.378Z,95.22
2017-12-15T00:18:42.912Z,94.93
2017-12-15T00:19:23.417Z,95.32
2017-12-15T00:20:03.955Z,95.22
2017-12-15T00:20:44.521Z,94.74
2017-12-15T00:21:25.044Z,95.03
2017-12-15T00:22:05.611Z,95.32
2017-12-15T00:22:46.149Z,94.65
2017-12-15T00:23:26.657Z,95.32
2017-12-15T00:24:07.218Z,94.74
2017-12-15T00:24:47.739Z,93.79
2017-12-15T00:25:28.312Z,93.89
2017-12-15T00:26:08.834Z,94.32
2017-12-15T00:26:49.436Z,93.46
2017-12-15T00:27:29.938Z,93.79
2017-12-15T00:28:10.461Z,94.22
2017-12-15T00:28:51.043Z,93.55
2017-12-15T00:29:31.567Z,93.37
2017-12-15T00:30:12.083Z,93.41
2017-12-15T00:30:52.596Z,93.89
2017-12-15T00:31:33.165Z,93.32
2017-12-15T00:32:13.697Z,93.89
2017-12-15T00:32:54.211Z,93.98
2017-12-15T00:33:34.780Z,94.18
2017-12-15T00:34:15.294Z,94.08
2017-12-15T00:34:55.950Z,93.7
2017-12-15T00:35:36.515Z,93.98
2017-12-15T00:36:16.998Z,93.79
2017-12-15T00:36:57.492Z,93.98
2017-12-15T00:37:38.086Z,93.79
2017-12-15T00:38:18.555Z,93.98
2017-12-15T00:38:59.092Z,94.18
2017-12-15T00:39:39.579Z,94.65
2017-12-15T00:40:20.119Z,94.93
2017-12-15T00:41:00.706Z,94.56
2017-12-15T00:41:41.294Z,94.65
2017-12-15T00:42:21.818Z,94.74
2017-12-15T00:43:02.320Z,95.22
2017-12-15T00:43:42.808Z,94.74
2017-12-15T00:44:23.358Z,95.12
2017-12-15T00:45:03.840Z,95.41
2017-12-15T00:45:44.410Z,94.74
2017-12-15T00:46:24.889Z,94.18
2017-12-15T00:47:05.451Z,94.84
2017-12-15T00:47:46.000Z,94.18
2017-12-15T00:48:26.527Z,94.65
2017-12-15T00:49:07.077Z,94.84
2017-12-15T00:49:47.619Z,94.56
2017-12-15T00:50:28.156Z,94.65
2017-12-15T00:51:08.681Z,94.65
2017-12-15T00:51:49.447Z,94.56
2017-12-15T00:52:29.953Z,94.84
2017-12-15T00:53:10.532Z,94.37
2017-12-15T00:53:51.029Z,94.18
2017-12-15T00:54:31.539Z,95.22
2017-12-15T00:55:12.094Z,94.65
2017-12-15T00:55:52.646Z,95.22
2017-12-15T00:56:33.238Z,95.32
2017-12-15T00:57:13.758Z,94.74
2017-12-15T00:57:54.370Z,95.32
2017-12-15T00:58:34.883Z,94.93
2017-12-15T00:59:15.383Z,94.65
2017-12-15T00:59:55.913Z,94.56
2017-12-15T01:00:36.485Z,95.03
2017-12-15T01:01:17.116Z,95.12
2017-12-15T01:01:57.651Z,94.74
2017-12-15T01:02:38.167Z,94.56
2017-12-15T01:03:18.692Z,95.12
2017-12-15T01:03:59.195Z,95.22
2017-12-15T01:04:39.771Z,95.32
2017-12-15T01:05:20.303Z,94.84
2017-12-15T01:06:00.826Z,95.41
2017-12-15T01:06:41.352Z,95.03
2017-12-15T01:07:21.920Z,95.7
2017-12-15T01:08:02.476Z,96.55
2017-12-15T01:08:43.014Z,96.41
2017-12-15T01:09:23.562Z,95.84
2017-12-15T01:10:04.134Z,95.08
2017-12-15T01:10:44.713Z,95.75
2017-12-15T01:11:25.187Z,95.94
2017-12-15T01:12:05.778Z,95.65
2017-12-15T01:12:46.296Z,95.84
2017-12-15T01:13:26.842Z,95.46
2017-12-15T01:14:07.356Z,94.79
2017-12-15T01:14:47.930Z,95.08
2017-12-15T01:15:28.432Z,93.94
2017-12-15T01:16:08.936Z,94.42
2017-12-15T01:16:49.497Z,93.55
2017-12-15T01:17:30.065Z,94.13
2017-12-15T01:18:10.571Z,93.75
2017-12-15T01:18:51.141Z,93.08
2017-12-15T01:19:31.723Z,93.18
2017-12-15T01:20:12.225Z,93.55
2017-12-15T01:20:52.874Z,93.65
2017-12-15T01:21:33.421Z,93.37
2017-12-15T01:22:13.936Z,92.99
2017-12-15T01:22:54.512Z,93.37
2017-12-15T01:23:35.083Z,92.03
2017-12-15T01:24:15.672Z,92.32
2017-12-15T01:24:56.209Z,91.94
2017-12-15T01:25:36.792Z,92.22
2017-12-15T01:26:17.302Z,92.61
2017-12-15T01:26:57.846Z,92.13
2017-12-15T01:27:38.373Z,92.41
2017-12-15T01:28:18.900Z,91.18
2017-12-15T01:28:59.437Z,90.42
2017-12-15T01:29:40.009Z,90.8
2017-12-15T01:30:20.514Z,90.8
2017-12-15T01:31:01.052Z,90.61
2017-12-15T01:31:41.601Z,90.8
2017-12-15T01:32:22.153Z,90.7
2017-12-15T01:33:02.709Z,90.52
2017-12-15T01:33:43.438Z,90.42
2017-12-15T01:34:23.759Z,90.61
2017-12-15T01:35:04.325Z,90.99
2017-12-15T01:35:44.808Z,90.23
2017-12-15T01:36:25.387Z,89.94
2017-12-15T01:37:05.894Z,89.66
2017-12-15T01:37:46.443Z,89
2017-12-15T01:38:27.015Z,89.09
2017-12-15T01:39:07.501Z,89.47
2017-12-15T01:39:48.092Z,88.9
2017-12-15T01:40:28.663Z,88.9
2017-12-15T01:41:09.239Z,88.9
2017-12-15T01:41:49.822Z,88.71
2017-12-15T01:42:30.309Z,89.66
2017-12-15T01:43:11.011Z,89.85
2017-12-15T01:43:51.542Z,90.89
2017-12-15T01:44:32.076Z,90.33
2017-12-15T01:45:12.626Z,89.85
2017-12-15T01:45:53.182Z,89.94
2017-12-15T01:46:33.760Z,89.37
2017-12-15T01:47:14.261Z,89.94
2017-12-15T01:47:54.814Z,89.47
2017-12-15T01:48:35.382Z,90.14
2017-12-15T01:49:15.883Z,89.8
2017-12-15T01:49:56.449Z,90.04
2017-12-15T01:50:37.142Z,89.75
2017-12-15T01:51:17.501Z,90.61
2017-12-15T01:51:58.044Z,90.89
2017-12-15T01:52:38.605Z,90.52
2017-12-15T01:53:19.121Z,90.52
2017-12-15T01:53:59.701Z,89.94
2017-12-15T01:54:40.216Z,90.23
2017-12-15T01:55:20.818Z,90.23
2017-12-15T01:56:01.292Z,89.66
2017-12-15T01:56:41.810Z,89.85
2017-12-15T01:57:22.344Z,90.89
2017-12-15T01:58:02.878Z,90.52
2017-12-15T01:58:43.413Z,90.61
2017-12-15T01:59:23.965Z,89.94
2017-12-15T02:00:04.614Z,89.85
2017-12-15T02:00:45.124Z,89.94
2017-12-15T02:01:25.873Z,89.28
2017-12-15T02:02:06.345Z,89.75
2017-12-15T02:02:46.857Z,89.85
2017-12-15T02:03:27.471Z,89.66
2017-12-15T02:04:08.021Z,89.28
2017-12-15T02:04:48.635Z,89.56
2017-12-15T02:05:29.116Z,89.18
2017-12-15T02:06:09.666Z,88.8
2017-12-15T02:06:50.265Z,88.28
2017-12-15T02:07:30.789Z,88.47
2017-12-15T02:08:11.312Z,89.04
2017-12-15T02:08:51.817Z,89.71
2017-12-15T02:09:32.340Z,90.56
2017-12-15T02:10:12.886Z,89.8
2017-12-15T02:10:53.420Z,89.42
2017-12-15T02:11:33.934Z,89.71
2017-12-15T02:12:14.449Z,89.9
2017-12-15T02:12:55.015Z,90
2017-12-15T02:13:35.554Z,90.05
2017-12-15T02:14:16.090Z,90.61
2017-12-15T02:14:56.648Z,90.94
2017-12-15T02:15:37.182Z,90.94
2017-12-15T02:16:17.690Z,90.61
2017-12-15T02:16:58.276Z,90.85
2017-12-15T02:17:38.833Z,91.52
2017-12-15T02:18:19.291Z,91.47
2017-12-15T02:18:59.869Z,91.52
2017-12-15T02:19:40.503Z,91.61
2017-12-15T02:20:21.105Z,91.71
2017-12-15T02:21:02.093Z,91.8
2017-12-15T02:21:43.114Z,91.38
2017-12-15T02:22:23.809Z,91.19
2017-12-15T02:23:04.455Z,91.09
2017-12-15T02:23:45.113Z,91.47
2017-12-15T02:24:26.128Z,91.47
2017-12-15T02:25:07.009Z,91.66
2017-12-15T02:25:47.704Z,91.56
2017-12-15T02:26:28.268Z,90.99
2017-12-15T02:27:08.943Z,91.09
2017-12-15T02:27:49.551Z,90.71
2017-12-15T02:28:30.231Z,90.71
2017-12-15T02:29:10.877Z,91.56
2017-12-15T02:29:51.678Z,91.38
2017-12-15T02:30:32.239Z,91.38
2017-12-15T02:31:12.858Z,90.99
2017-12-15T02:31:53.515Z,91.38
2017-12-15T02:32:34.354Z,90.9
2017-12-15T02:33:14.968Z,91.47
2017-12-15T02:33:55.668Z,91.85
2017-12-15T02:34:36.336Z,92.42
2017-12-15T02:35:17.294Z,92.13
2017-12-15T02:35:58.617Z,92.13
2017-12-15T02:36:39.559Z,92.51
2017-12-15T02:37:20.387Z,92.51
2017-12-15T02:38:01.120Z,92.23
2017-12-15T02:38:41.922Z,92.13
2017-12-15T02:39:22.810Z,92.13
2017-12-15T02:40:03.400Z,91.85
2017-12-15T02:40:43.954Z,92.13
2017-12-15T02:41:24.490Z,92.71
2017-12-15T02:42:05.171Z,92.71
2017-12-15T02:42:45.829Z,92.61
2017-12-15T02:43:26.367Z,91.85
2017-12-15T02:44:06.965Z,92.42
2017-12-15T02:44:47.578Z,92.99
2017-12-15T02:45:28.300Z,92.8
2017-12-15T02:46:09.615Z,92.8
2017-12-15T02:46:49.471Z,92.9
2017-12-15T02:47:30.033Z,93.18
2017-12-15T02:48:10.687Z,93.51
2017-12-15T02:48:51.181Z,93.18
2017-12-15T02:49:32.039Z,93.56
2017-12-15T02:50:12.796Z,93.37
2017-12-15T02:50:53.348Z,93.46
2017-12-15T02:51:34.272Z,93.18
2017-12-15T02:52:15.274Z,93.27
2017-12-15T02:52:56.006Z,93.46
2017-12-15T02:53:36.657Z,92.9
2017-12-15T02:54:17.696Z,92.51
2017-12-15T02:54:58.543Z,92.61
2017-12-15T02:55:39.296Z,92.13
2017-12-15T02:56:19.824Z,92.23
2017-12-15T02:57:00.483Z,92.61
2017-12-15T02:57:41.138Z,92.13
2017-12-15T02:58:21.736Z,92.32
2017-12-15T02:59:02.445Z,92.23
2017-12-15T02:59:43.047Z,92.32
2017-12-15T03:00:23.815Z,91.56
2017-12-15T03:01:04.408Z,92.32
2017-12-15T03:01:45.398Z,92.13
2017-12-15T03:02:26.422Z,92.23
2017-12-15T03:03:07.073Z,92.8
2017-12-15T03:03:49.042Z,93.37
2017-12-15T03:04:29.644Z,93.13
2017-12-15T03:05:10.357Z,93.08
2017-12-15T03:05:51.259Z,92.9
2017-12-15T03:06:31.999Z,93.37
2017-12-15T03:07:12.832Z,93.7
2017-12-15T03:07:53.473Z,93.13
2017-12-15T03:08:34.067Z,93.37
2017-12-15T03:09:14.749Z,93.46
2017-12-15T03:09:55.262Z,93.08
2017-12-15T03:10:35.824Z,92.99
2017-12-15T03:11:16.971Z,93.23
2017-12-15T03:11:57.699Z,93.13
2017-12-15T03:12:38.350Z,93.32
2017-12-15T03:13:19.154Z,93.51
2017-12-15T03:14:00.032Z,93.27
2017-12-15T03:14:40.759Z,93.32
2017-12-15T03:15:21.493Z,93.32
2017-12-15T03:16:01.945Z,92.85
2017-12-15T03:16:42.787Z,92.75
2017-12-15T03:17:23.614Z,92.47
2017-12-15T03:18:04.700Z,92.85
2017-12-15T03:18:45.433Z,92.85
2017-12-15T03:19:26.283Z,93.23
2017-12-15T03:20:06.906Z,92.75
2017-12-15T03:20:47.441Z,92.94
2017-12-15T03:21:28.235Z,92.94
2017-12-15T03:22:08.815Z,92.66
2017-12-15T03:22:49.409Z,92.75
2017-12-15T03:23:30.373Z,92.94
2017-12-15T03:24:11.050Z,92.71
2017-12-15T03:24:52.298Z,92.56
2017-12-15T03:25:33.165Z,92.66
2017-12-15T03:26:13.822Z,92.04
2017-12-15T03:26:54.581Z,91.89
2017-12-15T03:27:35.275Z,92.09
2017-12-15T03:28:16.149Z,92.28
2017-12-15T03:28:56.681Z,92.28
2017-12-15T03:29:37.265Z,92.66
2017-12-15T03:30:17.773Z,92.18
2017-12-15T03:30:58.337Z,92.28
2017-12-15T03:31:38.847Z,92.09
2017-12-15T03:32:19.368Z,92.18
2017-12-15T03:32:59.897Z,91.99
2017-12-15T03:33:40.410Z,91.99
2017-12-15T03:34:20.968Z,92.28
2017-12-15T03:35:01.472Z,92.37
2017-12-15T03:35:42.031Z,92.56
2017-12-15T03:36:22.556Z,92.37
2017-12-15T03:37:03.088Z,92.37
2017-12-15T03:37:43.610Z,92.56
2017-12-15T03:38:24.210Z,92.28
2017-12-15T03:39:04.682Z,92.66
2017-12-15T03:39:45.222Z,92.56
2017-12-15T03:40:25.768Z,92.18
2017-12-15T03:41:06.350Z,92.28
2017-12-15T03:41:46.880Z,92.32
2017-12-15T03:42:27.349Z,92.09
2017-12-15T03:43:07.930Z,91.99
2017-12-15T03:43:48.420Z,92.51
2017-12-15T03:44:29.004Z,92.32
2017-12-15T03:45:09.475Z,92.23
2017-12-15T03:45:50.017Z,92.23
2017-12-15T03:46:30.551Z,92.23
2017-12-15T03:47:11.036Z,91.89
2017-12-15T03:47:51.620Z,92.42
2017-12-15T03:48:32.129Z,92.23
2017-12-15T03:49:12.639Z,92.04
2017-12-15T03:49:53.206Z,91.47
2017-12-15T03:50:33.685Z,91.75
2017-12-15T03:51:14.252Z,91.75
2017-12-15T03:51:54.824Z,91.75
2017-12-15T03:52:35.384Z,91.47
2017-12-15T03:53:15.953Z,91.09
2017-12-15T03:53:56.475Z,91.19
2017-12-15T03:54:37.014Z,90.52
2017-12-15T03:55:17.570Z,90.33
2017-12-15T03:55:58.103Z,90.52
2017-12-15T03:56:38.674Z,90.33
2017-12-15T03:57:19.191Z,90.71
2017-12-15T03:57:59.773Z,90.52
2017-12-15T03:58:40.322Z,90.52
2017-12-15T03:59:20.977Z,90.9
2017-12-15T04:00:01.520Z,90.33
2017-12-15T04:00:42.059Z,90.42
2017-12-15T04:01:22.604Z,90.8
2017-12-15T04:02:03.165Z,90.14
2017-12-15T04:02:43.759Z,90.42
2017-12-15T04:03:24.315Z,90.42
2017-12-15T04:04:04.838Z,90.71
2017-12-15T04:04:45.493Z,90.33
2017-12-15T04:05:26.040Z,90.52
2017-12-15T04:06:06.596Z,90.8
2017-12-15T04:06:47.098Z,90.14
2017-12-15T04:07:27.693Z,90.61
2017-12-15T04:08:08.193Z,90.52
2017-12-15T04:08:48.747Z,90.99
2017-12-15T04:09:29.271Z,90.33
2017-12-15T04:10:09.799Z,90.8
2017-12-15T04:10:50.386Z,90.42
2017-12-15T04:11:30.852Z,90.52
2017-12-15T04:12:11.382Z,91.09
2017-12-15T04:12:51.897Z,90.99
2017-12-15T04:13:32.426Z,90.33
2017-12-15T04:14:12.962Z,91.28
2017-12-15T04:14:53.487Z,91.56
2017-12-15T04:15:33.996Z,91.38
2017-12-15T04:16:14.627Z,91.42
2017-12-15T04:16:55.136Z,91.75
2017-12-15T04:17:35.677Z,91.52
2017-12-15T04:18:16.348Z,91.24
2017-12-15T04:18:56.944Z,91.8
2017-12-15T04:19:37.441Z,91.75
2017-12-15T04:20:18.001Z,91.19
2017-12-15T04:20:58.504Z,90.9
2017-12-15T04:21:39.089Z,91.09
2017-12-15T04:22:19.598Z,90.52
2017-12-15T04:23:00.048Z,90.42
2017-12-15T04:23:40.590Z,90.23
2017-12-15T04:24:21.163Z,90.33
2017-12-15T04:25:01.671Z,90.33
2017-12-15T04:25:42.282Z,90.42
2017-12-15T04:26:22.791Z,90.23
2017-12-15T04:27:03.355Z,90.33
2017-12-15T04:27:43.852Z,90.33
2017-12-15T04:28:24.466Z,90.52
2017-12-15T04:29:05.020Z,90.8
2017-12-15T04:29:45.539Z,90.52
2017-12-15T04:30:26.085Z,90.61
2017-12-15T04:31:06.567Z,90.52
2017-12-15T04:31:47.117Z,90.71
2017-12-15T04:32:27.664Z,90.23
2017-12-15T04:33:08.197Z,90.23
2017-12-15T04:33:48.736Z,90.52
2017-12-15T04:34:29.266Z,90.8
2017-12-15T04:35:09.764Z,90.52
2017-12-15T04:35:50.339Z,90.33
2017-12-15T04:36:30.876Z,90.33
2017-12-15T04:37:11.344Z,91.09
2017-12-15T04:37:51.938Z,90.33
2017-12-15T04:38:32.454Z,91.09
2017-12-15T04:39:13.021Z,91.09
2017-12-15T04:39:53.578Z,91.09
2017-12-15T04:40:34.096Z,91.09
2017-12-15T04:41:14.635Z,91.28
2017-12-15T04:41:55.221Z,91.47
2017-12-15T04:42:35.702Z,91.47
2017-12-15T04:43:16.265Z,91.19
2017-12-15T04:43:56.757Z,90.9
2017-12-15T04:44:37.304Z,91.47
2017-12-15T04:45:17.893Z,91.38
2017-12-15T04:45:58.406Z,91.56
2017-12-15T04:46:38.970Z,91.66
2017-12-15T04:47:19.478Z,91.85
2017-12-15T04:48:00.080Z,91.85
2017-12-15T04:48:40.623Z,91.47
2017-12-15T04:49:21.111Z,90.99
2017-12-15T04:50:01.676Z,90.61
2017-12-15T04:50:42.285Z,90.52
2017-12-15T04:51:22.766Z,90.71
2017-12-15T04:52:03.274Z,90.52
2017-12-15T04:52:43.870Z,90.71
2017-12-15T04:53:24.343Z,91.09
2017-12-15T04:54:04.893Z,90.71
2017-12-15T04:54:45.416Z,90.61
2017-12-15T04:55:26.054Z,90.71
2017-12-15T04:56:06.550Z,90.33
2017-12-15T04:56:47.132Z,91.19
2017-12-15T04:57:27.682Z,91.09
2017-12-15T04:58:08.205Z,90.61
2017-12-15T04:58:48.715Z,90.52
2017-12-15T04:59:29.254Z,90.23
2017-12-15T05:00:09.803Z,90.61
2017-12-15T05:00:50.405Z,90.8
2017-12-15T05:01:30.956Z,90.9
2017-12-15T05:02:11.460Z,90.42
2017-12-15T05:02:52.037Z,90.52
2017-12-15T05:03:32.593Z,90.33
2017-12-15T05:04:13.118Z,90.71
2017-12-15T05:04:53.619Z,90.8
2017-12-15T05:05:34.232Z,90.33
2017-12-15T05:06:14.720Z,90.05
2017-12-15T05:06:55.279Z,90.33
2017-12-15T05:07:35.807Z,90.61
2017-12-15T05:08:16.342Z,90.8
2017-12-15T05:08:56.878Z,90.71
2017-12-15T05:09:37.431Z,90.33
2017-12-15T05:10:17.884Z,90.33
2017-12-15T05:10:58.464Z,90.8
2017-12-15T05:11:39.033Z,91.19
2017-12-15T05:12:19.587Z,90.9
2017-12-15T05:13:00.162Z,90.99
2017-12-15T05:13:40.663Z,90.61
2017-12-15T05:14:21.167Z,90.8
2017-12-15T05:15:01.688Z,91.28
2017-12-15T05:15:42.215Z,90.8
2017-12-15T05:16:22.798Z,90.85
2017-12-15T05:17:03.271Z,90.37
2017-12-15T05:17:43.814Z,90.56
2017-12-15T05:18:24.346Z,90
2017-12-15T05:19:04.845Z,89.33
2017-12-15T05:19:45.422Z,89.61
2017-12-15T05:20:25.961Z,89.8
2017-12-15T05:21:06.530Z,89.61
2017-12-15T05:21:47.065Z,90
2017-12-15T05:22:27.829Z,89.42
2017-12-15T05:23:08.177Z,89.33
2017-12-15T05:23:48.818Z,89.04
2017-12-15T05:24:29.302Z,89.61
2017-12-15T05:25:09.949Z,89.9
2017-12-15T05:25:50.404Z,90
2017-12-15T05:26:30.912Z,89.61
2017-12-15T05:27:11.433Z,89.61
2017-12-15T05:27:51.958Z,89.42
2017-12-15T05:28:32.551Z,89.42
2017-12-15T05:29:13.080Z,89.9
2017-12-15T05:29:53.613Z,89.61
2017-12-15T05:30:34.154Z,89.33
2017-12-15T05:31:14.682Z,89.71
2017-12-15T05:31:55.167Z,89.8
2017-12-15T05:32:35.695Z,89.33
2017-12-15T05:33:16.261Z,89.42
2017-12-15T05:33:56.784Z,89.52
2017-12-15T05:34:37.289Z,89.33
2017-12-15T05:35:17.826Z,89.33
2017-12-15T05:35:58.375Z,89.33
2017-12-15T05:36:38.917Z,89.71
2017-12-15T05:37:19.460Z,89.33
2017-12-15T05:37:59.974Z,89.42
2017-12-15T05:38:40.527Z,89.52
2017-12-15T05:39:21.036Z,89.71
2017-12-15T05:40:01.598Z,89.33
2017-12-15T05:40:42.115Z,89.14
2017-12-15T05:41:22.615Z,88.67
2017-12-15T05:42:03.227Z,89.52
2017-12-15T05:42:43.735Z,89.8
2017-12-15T05:43:24.312Z,89.42
2017-12-15T05:44:04.833Z,89.9
2017-12-15T05:44:45.406Z,90.19
2017-12-15T05:45:25.972Z,89.61
2017-12-15T05:46:06.468Z,89.23
2017-12-15T05:46:47.026Z,89.04
2017-12-15T05:47:27.544Z,88.95
2017-12-15T05:48:08.083Z,89.42
2017-12-15T05:48:48.760Z,88.85
2017-12-15T05:49:29.277Z,89.52
2017-12-15T05:50:09.713Z,89.33
2017-12-15T05:50:50.313Z,89.04
2017-12-15T05:51:30.829Z,89.23
2017-12-15T05:52:11.393Z,89.04
2017-12-15T05:52:51.936Z,88.76
2017-12-15T05:53:32.422Z,88.95
2017-12-15T05:54:12.950Z,88.47
2017-12-15T05:54:53.459Z,88
2017-12-15T05:55:33.990Z,88.09
2017-12-15T05:56:14.539Z,88.19
2017-12-15T05:56:55.045Z,88
2017-12-15T05:57:35.575Z,88.09
2017-12-15T05:58:16.092Z,88.38
2017-12-15T05:58:56.659Z,88.85
2017-12-15T05:59:37.213Z,88.85
2017-12-15T06:00:17.722Z,89.42
2017-12-15T06:00:58.246Z,89.42
2017-12-15T06:01:38.836Z,89.8
2017-12-15T06:02:19.358Z,89.42
2017-12-15T06:02:59.921Z,89.42
2017-12-15T06:03:40.468Z,88.95
2017-12-15T06:04:21.014Z,88.95
2017-12-15T06:05:01.548Z,88.19
2017-12-15T06:05:42.086Z,88.38
2017-12-15T06:06:22.631Z,88.67
2017-12-15T06:07:03.156Z,88.09
2017-12-15T06:07:43.687Z,88
2017-12-15T06:08:24.281Z,87.81
2017-12-15T06:09:04.869Z,88
2017-12-15T06:09:45.359Z,88.67
2017-12-15T06:10:25.893Z,88.28
2017-12-15T06:11:06.429Z,88.13
2017-12-15T06:11:46.946Z,87.76
2017-12-15T06:12:27.554Z,87.38
2017-12-15T06:13:08.260Z,86.99
2017-12-15T06:13:48.760Z,87.52
2017-12-15T06:14:29.361Z,87.85
2017-12-15T06:15:09.879Z,87.85
2017-12-15T06:15:50.480Z,87.66
2017-12-15T06:16:30.954Z,88.13
2017-12-15T06:17:11.517Z,87.95
2017-12-15T06:17:52.043Z,88.42
2017-12-15T06:18:32.572Z,88.33
2017-12-15T06:19:13.055Z,88.8
2017-12-15T06:19:53.598Z,89.28
2017-12-15T06:20:34.104Z,89.94
2017-12-15T06:21:14.622Z,90.8
2017-12-15T06:21:55.193Z,90.33
2017-12-15T06:22:35.691Z,90.33
2017-12-15T06:23:16.250Z,89.85
2017-12-15T06:23:56.868Z,90.14
2017-12-15T06:24:37.372Z,89.66
2017-12-15T06:25:18.017Z,89.47
2017-12-15T06:25:58.424Z,89
2017-12-15T06:26:38.967Z,89.94
2017-12-15T06:27:19.640Z,90.42
2017-12-15T06:28:00.140Z,90.42
2017-12-15T06:28:40.679Z,90.52
2017-12-15T06:29:21.201Z,90.42
2017-12-15T06:30:01.745Z,89.94
2017-12-15T06:30:42.341Z,89.85
2017-12-15T06:31:22.852Z,90.52
2017-12-15T06:32:03.337Z,90.61
2017-12-15T06:32:43.902Z,91.37
2017-12-15T06:33:24.489Z,90.7
2017-12-15T06:34:05.025Z,90.8
2017-12-15T06:34:45.590Z,92.03
2017-12-15T06:35:26.192Z,92.32
2017-12-15T06:36:06.712Z,93.27
2017-12-15T06:36:47.345Z,92.94
2017-12-15T06:37:27.887Z,93.51
2017-12-15T06:38:08.404Z,93.04
2017-12-15T06:38:48.990Z,92.03
2017-12-15T06:39:29.544Z,91.85
2017-12-15T06:40:10.056Z,92.94
2017-12-15T06:40:50.648Z,91.75
2017-12-15T06:41:31.198Z,89.85
2017-12-15T06:42:11.738Z,88.8
2017-12-15T06:42:52.285Z,88.28
2017-12-15T06:43:32.836Z,89.99
2017-12-15T06:44:13.413Z,91.22
2017-12-15T06:44:53.889Z,89.66
2017-12-15T06:45:34.446Z,87.28
2017-12-15T06:46:14.916Z,89.09
2017-12-15T06:46:55.396Z,90.84
2017-12-15T06:47:35.949Z,91.51
2017-12-15T06:48:16.515Z,92.36
2017-12-15T06:48:57.079Z,92.18
2017-12-15T06:49:37.618Z,92.08
2017-12-15T06:50:18.195Z,92.56
2017-12-15T06:50:58.660Z,91.8
2017-12-15T06:51:39.214Z,91.22
2017-12-15T06:52:19.707Z,92.56
2017-12-15T06:53:00.307Z,91.8
2017-12-15T06:53:40.809Z,91.61
2017-12-15T06:54:21.348Z,91.22
2017-12-15T06:55:01.885Z,89.51
2017-12-15T06:55:42.449Z,88.56
2017-12-15T06:56:23.062Z,88.85
2017-12-15T06:57:03.624Z,89.51
2017-12-15T06:57:44.232Z,88.66
2017-12-15T06:58:24.799Z,86.85
2017-12-15T06:59:05.296Z,85.86
2017-12-15T06:59:45.781Z,86.05
2017-12-15T07:00:26.329Z,87.76
2017-12-15T07:01:06.941Z,87.85
2017-12-15T07:01:47.488Z,90.66
2017-12-15T07:02:28.066Z,91.28
2017-12-15T07:03:08.671Z,90.89
2017-12-15T07:03:49.274Z,99.99
2017-12-15T07:04:29.812Z,99.99
2017-12-15T07:05:10.344Z,99.99
2017-12-15T07:05:50.881Z,99.99
2017-12-15T07:06:31.580Z,99.99
2017-12-15T07:07:13.758Z,99.99
2017-12-15T07:07:54.196Z,99.99
2017-12-15T07:08:35.370Z,99.99
2017-12-15T07:09:16.156Z,99.99
2017-12-15T07:09:56.657Z,99.99
2017-12-15T07:10:38.138Z,99.99
2017-12-15T07:11:18.466Z,99.99
2017-12-15T07:11:58.883Z,99.99
2017-12-15T07:12:39.398Z,99.99
2017-12-15T07:13:21.860Z,99.02
2017-12-15T07:14:03.438Z,94.13
2017-12-15T07:14:44.058Z,93.08
2017-12-15T07:15:25.837Z,91.66
2017-12-15T07:16:06.362Z,92.56
2017-12-15T07:20:10.546Z,92.08
2017-12-15T07:24:26.926Z,99.99
2017-12-15T07:25:07.436Z,99.99
2017-12-15T07:25:47.995Z,99.99
2017-12-15T07:26:28.545Z,99.99
2017-12-15T07:27:09.089Z,99.99
2017-12-15T07:27:49.631Z,97.6
2017-12-15T07:28:30.131Z,95.41
2017-12-15T07:29:10.726Z,93.51
2017-12-15T07:29:51.222Z,89.09
2017-12-15T07:30:31.760Z,87.95
2017-12-15T07:31:12.359Z,99.99
2017-12-15T07:31:53.052Z,99.99
2017-12-15T07:32:33.889Z,99.99
2017-12-15T07:33:14.393Z,99.99
2017-12-15T07:33:54.896Z,99.99
2017-12-15T07:34:35.743Z,99.99
2017-12-15T07:35:16.243Z,99.99
2017-12-15T07:35:56.843Z,99.99
2017-12-15T07:36:37.488Z,99.99
2017-12-15T07:37:17.896Z,99.99
2017-12-15T07:37:58.435Z,99.99
2017-12-15T07:38:38.964Z,99.99
2017-12-15T07:39:19.554Z,97.98
2017-12-15T07:40:00.039Z,96.08
2017-12-15T07:40:40.560Z,94.08
2017-12-15T07:41:21.090Z,92.51
2017-12-15T07:42:01.606Z,92.03
2017-12-15T07:42:42.154Z,91.75
2017-12-15T07:43:22.787Z,90.61
2017-12-15T07:44:03.277Z,90.99
2017-12-15T07:44:43.772Z,92.7
2017-12-15T07:45:24.689Z,93.08
2017-12-15T07:46:05.599Z,92.03
2017-12-15T07:46:46.194Z,91.56
2017-12-15T07:47:26.739Z,93.75
2017-12-15T07:48:07.256Z,92.41
2017-12-15T07:48:47.762Z,92.13
2017-12-15T07:49:28.390Z,91.66
2017-12-15T07:50:08.842Z,92.22
2017-12-15T07:50:49.371Z,93.18
2017-12-15T07:51:29.890Z,91.66
2017-12-15T07:52:10.427Z,90.89
2017-12-15T07:52:51.045Z,90.23
2017-12-15T07:53:31.532Z,91.08
2017-12-15T07:54:12.056Z,92.13
2017-12-15T07:54:52.599Z,93.46
2017-12-15T07:55:33.236Z,92.89
2017-12-15T07:56:13.772Z,92.8
2017-12-15T07:56:54.264Z,93.37
2017-12-15T07:57:34.801Z,91.37
2017-12-15T07:58:15.338Z,91.37
2017-12-15T07:58:55.900Z,90.89
2017-12-15T07:59:36.427Z,93.08
2017-12-15T08:00:16.938Z,93.55
2017-12-15T08:00:57.487Z,94.32
2017-12-15T08:01:38.089Z,92.51
2017-12-15T08:02:18.589Z,91.47
2017-12-15T08:02:59.170Z,91.08
2017-12-15T08:03:39.730Z,90.42
2017-12-15T08:04:20.216Z,90.23
2017-12-15T08:05:00.793Z,90.61
2017-12-15T08:05:41.303Z,91.47
2017-12-15T08:06:21.959Z,95.17
2017-12-15T08:07:02.587Z,99.99
2017-12-15T08:07:43.143Z,99.99
2017-12-15T08:08:23.625Z,99.99
2017-12-15T08:09:04.165Z,99.99
2017-12-15T08:09:44.684Z,99.99
2017-12-15T08:10:25.271Z,99.99
2017-12-15T08:11:05.779Z,99.99
2017-12-15T08:11:46.365Z,99.99
2017-12-15T08:12:26.873Z,99.99
2017-12-15T08:13:07.389Z,99.99
2017-12-15T08:13:47.991Z,99.99
2017-12-15T08:14:28.488Z,99.99
2017-12-15T08:15:08.990Z,99.99
2017-12-15T08:15:49.508Z,99.99
2017-12-15T08:16:30.090Z,99.99
2017-12-15T08:17:10.630Z,99.99
2017-12-15T08:17:51.102Z,99.99
2017-12-15T08:18:31.690Z,99.55
2017-12-15T08:19:12.242Z,97.74
2017-12-15T08:19:52.751Z,95.08
2017-12-15T08:20:33.291Z,93.84
2017-12-15T08:21:13.811Z,99.99
2017-12-15T08:21:54.341Z,99.99
2017-12-15T08:22:34.899Z,99.99
2017-12-15T08:23:15.452Z,99.99
2017-12-15T08:23:55.962Z,99.99
2017-12-15T08:24:36.462Z,99.99
2017-12-15T08:25:17.015Z,99.99
2017-12-15T08:25:57.552Z,99.99
2017-12-15T08:26:38.220Z,99.99
2017-12-15T08:27:18.711Z,99.99
2017-12-15T08:27:59.276Z,99.99
2017-12-15T08:28:39.846Z,99.99
2017-12-15T08:29:20.382Z,99.99
2017-12-15T08:30:00.954Z,99.99
2017-12-15T08:30:41.476Z,99.99
2017-12-15T08:31:21.992Z,99.6
2017-12-15T08:32:02.518Z,98.93
2017-12-15T08:32:43.044Z,99.99
2017-12-15T08:33:23.559Z,99.99
2017-12-15T08:34:04.138Z,98.83
2017-12-15T08:34:44.640Z,99.99
2017-12-15T08:35:25.202Z,97.22
2017-12-15T08:36:05.724Z,98.17
2017-12-15T08:36:46.264Z,99.12
2017-12-15T08:37:26.860Z,98.08
2017-12-15T08:38:07.512Z,98.36
2017-12-15T08:38:48.052Z,98.36
2017-12-15T08:39:28.594Z,95.98
2017-12-15T08:40:09.145Z,94.74
2017-12-15T08:40:49.635Z,94.27
2017-12-15T08:41:30.205Z,95.22
2017-12-15T08:42:10.763Z,94.37
2017-12-15T08:42:51.291Z,95.12
2017-12-15T08:43:31.814Z,95.89
2017-12-15T08:44:12.310Z,95.12
2017-12-15T08:44:52.976Z,95.51
2017-12-15T08:45:33.506Z,96.08
2017-12-15T08:46:14.041Z,95.79
2017-12-15T08:46:54.574Z,94.46
2017-12-15T08:47:35.088Z,95.22
2017-12-15T08:48:15.714Z,93.04
2017-12-15T08:48:56.228Z,93.98
2017-12-15T08:49:36.758Z,93.04
2017-12-15T08:50:17.431Z,93.23
2017-12-15T08:50:58.005Z,93.7
2017-12-15T08:51:38.563Z,93.79